sensor_id;sensor_type;location;lat;lon;timestamp;temperature;humidity
67899;DHT22;54699;51.796;10.956;2023-07-30T00:00:36;23.90;57.30
67899;DHT22;54699;51.796;10.956;2023-07-30T00:03:03;23.90;57.10
67899;DHT22;54699;51.796;10.956;2023-07-30T00:05:31;23.90;57.30
67899;DHT22;54699;51.796;10.956;2023-07-30T00:07:59;23.90;57.20
67899;DHT22;54699;51.796;10.956;2023-07-30T00:10:27;23.90;57.30
67899;DHT22;54699;51.796;10.956;2023-07-30T00:12:54;23.90;57.30
67899;DHT22;54699;51.796;10.956;2023-07-30T00:15:21;23.90;58.20
67899;DHT22;54699;51.796;10.956;2023-07-30T00:17:49;23.90;57.10
67899;DHT22;54699;51.796;10.956;2023-07-30T00:20:16;23.90;57.20
67899;DHT22;54699;51.796;10.956;2023-07-30T00:22:45;23.90;57.20
67899;DHT22;54699;51.796;10.956;2023-07-30T00:25:14;23.90;57.10
67899;DHT22;54699;51.796;10.956;2023-07-30T00:27:41;23.90;58.10
67899;DHT22;54699;51.796;10.956;2023-07-30T00:30:09;23.90;57.10
67899;DHT22;54699;51.796;10.956;2023-07-30T00:32:37;23.90;57.10
67899;DHT22;54699;51.796;10.956;2023-07-30T00:35:08;23.90;57.00
67899;DHT22;54699;51.796;10.956;2023-07-30T00:37:35;23.90;57.10
67899;DHT22;54699;51.796;10.956;2023-07-30T00:40:05;23.90;57.10
67899;DHT22;54699;51.796;10.956;2023-07-30T00:42:36;23.90;57.00
67899;DHT22;54699;51.796;10.956;2023-07-30T00:45:04;23.90;56.90
67899;DHT22;54699;51.796;10.956;2023-07-30T00:47:31;23.90;57.10
67899;DHT22;54699;51.796;10.956;2023-07-30T00:49:59;23.80;56.90
67899;DHT22;54699;51.796;10.956;2023-07-30T00:52:27;23.90;57.00
67899;DHT22;54699;51.796;10.956;2023-07-30T00:54:55;23.90;57.00
67899;DHT22;54699;51.796;10.956;2023-07-30T00:57:24;23.80;56.90
67899;DHT22;54699;51.796;10.956;2023-07-30T00:59:56;23.90;57.10
67899;DHT22;54699;51.796;10.956;2023-07-30T01:02:24;23.80;56.90
67899;DHT22;54699;51.796;10.956;2023-07-30T01:04:51;23.90;57.10
67899;DHT22;54699;51.796;10.956;2023-07-30T01:07:18;23.90;56.90
67899;DHT22;54699;51.796;10.956;2023-07-30T01:09:46;23.80;56.80
67899;DHT22;54699;51.796;10.956;2023-07-30T01:12:13;23.80;56.80
67899;DHT22;54699;51.796;10.956;2023-07-30T01:14:41;23.80;56.90
67899;DHT22;54699;51.796;10.956;2023-07-30T01:17:10;23.80;56.90
67899;DHT22;54699;51.796;10.956;2023-07-30T01:19:38;23.90;57.20
67899;DHT22;54699;51.796;10.956;2023-07-30T01:22:07;23.80;56.90
67899;DHT22;54699;51.796;10.956;2023-07-30T01:24:34;23.80;57.00
67899;DHT22;54699;51.796;10.956;2023-07-30T01:27:01;23.80;57.20
67899;DHT22;54699;51.796;10.956;2023-07-30T01:29:33;23.80;57.10
67899;DHT22;54699;51.796;10.956;2023-07-30T01:32:07;23.80;57.00
67899;DHT22;54699;51.796;10.956;2023-07-30T01:34:37;23.80;56.90
67899;DHT22;54699;51.796;10.956;2023-07-30T01:37:09;23.80;57.00
67899;DHT22;54699;51.796;10.956;2023-07-30T01:39:39;23.80;57.00
67899;DHT22;54699;51.796;10.956;2023-07-30T01:42:07;23.80;57.10
67899;DHT22;54699;51.796;10.956;2023-07-30T01:44:34;23.80;57.00
67899;DHT22;54699;51.796;10.956;2023-07-30T01:47:01;23.80;57.10
67899;DHT22;54699;51.796;10.956;2023-07-30T01:49:28;23.80;57.10
67899;DHT22;54699;51.796;10.956;2023-07-30T01:51:55;23.80;57.10
67899;DHT22;54699;51.796;10.956;2023-07-30T01:54:23;23.80;57.10
67899;DHT22;54699;51.796;10.956;2023-07-30T01:56:51;23.80;57.20
67899;DHT22;54699;51.796;10.956;2023-07-30T01:59:18;23.80;57.10
67899;DHT22;54699;51.796;10.956;2023-07-30T02:01:45;23.70;57.10
67899;DHT22;54699;51.796;10.956;2023-07-30T02:04:11;23.80;57.10
67899;DHT22;54699;51.796;10.956;2023-07-30T02:06:38;23.80;57.30
67899;DHT22;54699;51.796;10.956;2023-07-30T02:09:05;23.80;57.30
67899;DHT22;54699;51.796;10.956;2023-07-30T02:11:33;23.70;57.40
67899;DHT22;54699;51.796;10.956;2023-07-30T02:14:00;23.70;57.30
67899;DHT22;54699;51.796;10.956;2023-07-30T02:16:27;23.80;57.40
67899;DHT22;54699;51.796;10.956;2023-07-30T02:18:54;23.70;57.30
67899;DHT22;54699;51.796;10.956;2023-07-30T02:21:21;23.70;57.30
67899;DHT22;54699;51.796;10.956;2023-07-30T02:23:47;23.70;57.40
67899;DHT22;54699;51.796;10.956;2023-07-30T02:26:14;23.80;57.30
67899;DHT22;54699;51.796;10.956;2023-07-30T02:28:43;23.80;57.40
67899;DHT22;54699;51.796;10.956;2023-07-30T02:31:09;23.70;57.30
67899;DHT22;54699;51.796;10.956;2023-07-30T02:33:36;23.70;57.50
67899;DHT22;54699;51.796;10.956;2023-07-30T02:36:03;23.70;57.30
67899;DHT22;54699;51.796;10.956;2023-07-30T02:38:30;23.70;57.40
67899;DHT22;54699;51.796;10.956;2023-07-30T02:40:57;23.70;57.50
67899;DHT22;54699;51.796;10.956;2023-07-30T02:43:24;23.70;57.50
67899;DHT22;54699;51.796;10.956;2023-07-30T02:45:52;23.70;57.70
67899;DHT22;54699;51.796;10.956;2023-07-30T02:48:19;23.70;57.60
67899;DHT22;54699;51.796;10.956;2023-07-30T02:50:45;23.70;57.50
67899;DHT22;54699;51.796;10.956;2023-07-30T02:53:13;23.70;57.70
67899;DHT22;54699;51.796;10.956;2023-07-30T02:55:39;23.70;57.70
67899;DHT22;54699;51.796;10.956;2023-07-30T02:58:06;23.70;57.70
67899;DHT22;54699;51.796;10.956;2023-07-30T03:00:33;23.70;57.70
67899;DHT22;54699;51.796;10.956;2023-07-30T03:03:01;23.70;57.60
67899;DHT22;54699;51.796;10.956;2023-07-30T03:05:28;23.70;57.70
67899;DHT22;54699;51.796;10.956;2023-07-30T03:07:55;23.70;57.80
67899;DHT22;54699;51.796;10.956;2023-07-30T03:10:22;23.70;58.00
67899;DHT22;54699;51.796;10.956;2023-07-30T03:12:49;23.70;57.90
67899;DHT22;54699;51.796;10.956;2023-07-30T03:15:15;23.70;57.80
67899;DHT22;54699;51.796;10.956;2023-07-30T03:17:42;23.70;58.10
67899;DHT22;54699;51.796;10.956;2023-07-30T03:20:11;23.70;58.00
67899;DHT22;54699;51.796;10.956;2023-07-30T03:22:38;23.70;58.20
67899;DHT22;54699;51.796;10.956;2023-07-30T03:25:04;23.60;58.40
67899;DHT22;54699;51.796;10.956;2023-07-30T03:27:32;23.70;58.10
67899;DHT22;54699;51.796;10.956;2023-07-30T03:29:58;23.70;58.10
67899;DHT22;54699;51.796;10.956;2023-07-30T03:32:25;23.60;58.20
67899;DHT22;54699;51.796;10.956;2023-07-30T03:34:52;23.70;58.20
67899;DHT22;54699;51.796;10.956;2023-07-30T03:37:20;23.70;58.30
67899;DHT22;54699;51.796;10.956;2023-07-30T03:39:47;23.70;58.50
67899;DHT22;54699;51.796;10.956;2023-07-30T03:42:14;23.70;58.40
67899;DHT22;54699;51.796;10.956;2023-07-30T03:44:41;23.60;58.20
67899;DHT22;54699;51.796;10.956;2023-07-30T03:47:07;23.60;58.30
67899;DHT22;54699;51.796;10.956;2023-07-30T03:49:34;23.60;58.30
67899;DHT22;54699;51.796;10.956;2023-07-30T03:52:02;23.70;58.30
67899;DHT22;54699;51.796;10.956;2023-07-30T03:54:31;23.70;58.20
67899;DHT22;54699;51.796;10.956;2023-07-30T03:56:58;23.60;58.30
67899;DHT22;54699;51.796;10.956;2023-07-30T03:59:25;23.60;58.30
67899;DHT22;54699;51.796;10.956;2023-07-30T04:01:53;23.60;58.40
67899;DHT22;54699;51.796;10.956;2023-07-30T04:04:20;23.60;58.40
67899;DHT22;54699;51.796;10.956;2023-07-30T04:06:47;23.60;58.30
67899;DHT22;54699;51.796;10.956;2023-07-30T04:09:14;23.60;58.20
67899;DHT22;54699;51.796;10.956;2023-07-30T04:11:42;23.60;58.20
67899;DHT22;54699;51.796;10.956;2023-07-30T04:14:09;23.60;58.20
67899;DHT22;54699;51.796;10.956;2023-07-30T04:16:36;23.60;58.30
67899;DHT22;54699;51.796;10.956;2023-07-30T04:19:03;23.60;58.20
67899;DHT22;54699;51.796;10.956;2023-07-30T04:21:30;23.60;58.20
67899;DHT22;54699;51.796;10.956;2023-07-30T04:23:57;23.60;58.20
67899;DHT22;54699;51.796;10.956;2023-07-30T04:26:23;23.60;58.20
67899;DHT22;54699;51.796;10.956;2023-07-30T04:28:52;23.60;58.10
67899;DHT22;54699;51.796;10.956;2023-07-30T04:31:19;23.50;58.10
67899;DHT22;54699;51.796;10.956;2023-07-30T04:33:45;23.60;58.10
67899;DHT22;54699;51.796;10.956;2023-07-30T04:36:12;23.60;58.20
67899;DHT22;54699;51.796;10.956;2023-07-30T04:38:39;23.60;58.00
67899;DHT22;54699;51.796;10.956;2023-07-30T04:41:06;23.60;58.20
67899;DHT22;54699;51.796;10.956;2023-07-30T04:43:33;23.50;58.10
67899;DHT22;54699;51.796;10.956;2023-07-30T04:46:01;23.50;58.10
67899;DHT22;54699;51.796;10.956;2023-07-30T04:48:28;23.60;58.10
67899;DHT22;54699;51.796;10.956;2023-07-30T04:50:55;23.50;57.90
67899;DHT22;54699;51.796;10.956;2023-07-30T04:53:22;23.60;57.90
67899;DHT22;54699;51.796;10.956;2023-07-30T04:55:54;23.60;57.90
67899;DHT22;54699;51.796;10.956;2023-07-30T04:58:24;23.50;57.70
67899;DHT22;54699;51.796;10.956;2023-07-30T05:00:52;23.50;57.60
67899;DHT22;54699;51.796;10.956;2023-07-30T05:03:20;23.50;57.50
67899;DHT22;54699;51.796;10.956;2023-07-30T05:05:51;23.50;57.60
67899;DHT22;54699;51.796;10.956;2023-07-30T05:08:18;23.60;57.70
67899;DHT22;54699;51.796;10.956;2023-07-30T05:10:45;23.60;57.60
67899;DHT22;54699;51.796;10.956;2023-07-30T05:13:12;23.60;57.30
67899;DHT22;54699;51.796;10.956;2023-07-30T05:15:39;23.50;57.20
67899;DHT22;54699;51.796;10.956;2023-07-30T05:18:07;23.60;57.30
67899;DHT22;54699;51.796;10.956;2023-07-30T05:20:35;23.50;57.30
67899;DHT22;54699;51.796;10.956;2023-07-30T05:23:02;23.50;57.30
67899;DHT22;54699;51.796;10.956;2023-07-30T05:25:29;23.50;57.20
67899;DHT22;54699;51.796;10.956;2023-07-30T05:27:56;23.60;57.20
67899;DHT22;54699;51.796;10.956;2023-07-30T05:30:22;23.60;57.20
67899;DHT22;54699;51.796;10.956;2023-07-30T05:32:49;23.50;57.10
67899;DHT22;54699;51.796;10.956;2023-07-30T05:35:16;23.50;56.90
67899;DHT22;54699;51.796;10.956;2023-07-30T05:37:45;23.60;57.00
67899;DHT22;54699;51.796;10.956;2023-07-30T05:40:12;23.50;56.90
67899;DHT22;54699;51.796;10.956;2023-07-30T05:42:39;23.60;57.00
67899;DHT22;54699;51.796;10.956;2023-07-30T05:45:06;23.50;56.90
67899;DHT22;54699;51.796;10.956;2023-07-30T05:47:34;23.50;56.90
67899;DHT22;54699;51.796;10.956;2023-07-30T05:50:01;23.60;57.00
67899;DHT22;54699;51.796;10.956;2023-07-30T05:52:29;23.50;56.80
67899;DHT22;54699;51.796;10.956;2023-07-30T05:54:57;23.50;56.80
67899;DHT22;54699;51.796;10.956;2023-07-30T05:57:24;23.50;56.80
67899;DHT22;54699;51.796;10.956;2023-07-30T05:59:51;23.50;56.70
67899;DHT22;54699;51.796;10.956;2023-07-30T06:02:18;23.50;56.70
67899;DHT22;54699;51.796;10.956;2023-07-30T06:04:45;23.50;56.70
67899;DHT22;54699;51.796;10.956;2023-07-30T06:07:13;23.50;56.70
67899;DHT22;54699;51.796;10.956;2023-07-30T06:09:40;23.50;56.50
67899;DHT22;54699;51.796;10.956;2023-07-30T06:12:09;23.50;56.60
67899;DHT22;54699;51.796;10.956;2023-07-30T06:14:35;23.50;56.60
67899;DHT22;54699;51.796;10.956;2023-07-30T06:17:02;23.60;56.60
67899;DHT22;54699;51.796;10.956;2023-07-30T06:19:30;23.50;56.80
67899;DHT22;54699;51.796;10.956;2023-07-30T06:21:56;23.50;56.70
67899;DHT22;54699;51.796;10.956;2023-07-30T06:24:23;23.50;56.60
67899;DHT22;54699;51.796;10.956;2023-07-30T06:26:50;23.50;56.80
67899;DHT22;54699;51.796;10.956;2023-07-30T06:29:18;23.50;56.90
67899;DHT22;54699;51.796;10.956;2023-07-30T06:31:45;23.60;57.00
67899;DHT22;54699;51.796;10.956;2023-07-30T06:34:12;23.60;57.10
67899;DHT22;54699;51.796;10.956;2023-07-30T06:36:39;23.50;56.80
67899;DHT22;54699;51.796;10.956;2023-07-30T06:39:06;23.60;57.00
67899;DHT22;54699;51.796;10.956;2023-07-30T06:41:33;23.50;56.90
67899;DHT22;54699;51.796;10.956;2023-07-30T06:44:00;23.50;56.90
67899;DHT22;54699;51.796;10.956;2023-07-30T06:46:28;23.50;56.90
67899;DHT22;54699;51.796;10.956;2023-07-30T06:48:55;23.50;57.00
67899;DHT22;54699;51.796;10.956;2023-07-30T06:51:23;23.50;57.00
67899;DHT22;54699;51.796;10.956;2023-07-30T06:53:51;23.50;56.90
67899;DHT22;54699;51.796;10.956;2023-07-30T06:56:17;23.50;56.80
67899;DHT22;54699;51.796;10.956;2023-07-30T06:58:44;23.60;56.80
67899;DHT22;54699;51.796;10.956;2023-07-30T07:01:11;23.50;56.80
67899;DHT22;54699;51.796;10.956;2023-07-30T07:03:39;23.50;57.00
67899;DHT22;54699;51.796;10.956;2023-07-30T07:06:06;23.60;57.00
67899;DHT22;54699;51.796;10.956;2023-07-30T07:08:32;23.50;57.00
67899;DHT22;54699;51.796;10.956;2023-07-30T07:10:59;23.50;56.80
67899;DHT22;54699;51.796;10.956;2023-07-30T07:13:26;23.50;56.80
67899;DHT22;54699;51.796;10.956;2023-07-30T07:15:53;23.50;56.70
67899;DHT22;54699;51.796;10.956;2023-07-30T07:18:19;23.60;56.60
67899;DHT22;54699;51.796;10.956;2023-07-30T07:20:48;23.50;56.60
67899;DHT22;54699;51.796;10.956;2023-07-30T07:23:15;23.50;56.40
67899;DHT22;54699;51.796;10.956;2023-07-30T07:25:41;23.60;56.10
67899;DHT22;54699;51.796;10.956;2023-07-30T07:28:10;23.50;56.20
67899;DHT22;54699;51.796;10.956;2023-07-30T07:30:37;23.60;55.70
67899;DHT22;54699;51.796;10.956;2023-07-30T07:33:03;23.60;55.30
67899;DHT22;54699;51.796;10.956;2023-07-30T07:35:31;23.60;55.10
67899;DHT22;54699;51.796;10.956;2023-07-30T07:37:59;23.60;55.00
67899;DHT22;54699;51.796;10.956;2023-07-30T07:40:26;23.60;55.30
67899;DHT22;54699;51.796;10.956;2023-07-30T07:42:54;23.60;55.40
67899;DHT22;54699;51.796;10.956;2023-07-30T07:45:21;23.60;55.30
67899;DHT22;54699;51.796;10.956;2023-07-30T07:47:48;23.70;55.30
67899;DHT22;54699;51.796;10.956;2023-07-30T07:50:15;23.60;55.00
67899;DHT22;54699;51.796;10.956;2023-07-30T07:52:42;23.60;55.00
67899;DHT22;54699;51.796;10.956;2023-07-30T07:55:10;23.60;55.00
67899;DHT22;54699;51.796;10.956;2023-07-30T07:57:37;23.60;55.20
67899;DHT22;54699;51.796;10.956;2023-07-30T08:00:04;23.60;55.20
67899;DHT22;54699;51.796;10.956;2023-07-30T08:02:32;23.60;54.50
67899;DHT22;54699;51.796;10.956;2023-07-30T08:04:59;23.60;54.70
67899;DHT22;54699;51.796;10.956;2023-07-30T08:07:26;23.60;54.60
67899;DHT22;54699;51.796;10.956;2023-07-30T08:09:53;23.60;54.80
67899;DHT22;54699;51.796;10.956;2023-07-30T08:12:22;23.60;54.20
67899;DHT22;54699;51.796;10.956;2023-07-30T08:14:49;23.60;54.50
67899;DHT22;54699;51.796;10.956;2023-07-30T08:17:17;23.60;54.30
67899;DHT22;54699;51.796;10.956;2023-07-30T08:19:46;23.70;54.00
67899;DHT22;54699;51.796;10.956;2023-07-30T08:22:13;23.70;53.60
67899;DHT22;54699;51.796;10.956;2023-07-30T08:24:40;23.70;53.60
67899;DHT22;54699;51.796;10.956;2023-07-30T08:27:07;23.70;53.50
67899;DHT22;54699;51.796;10.956;2023-07-30T08:29:35;23.60;53.20
67899;DHT22;54699;51.796;10.956;2023-07-30T08:32:03;23.70;53.00
67899;DHT22;54699;51.796;10.956;2023-07-30T08:34:30;23.70;52.70
67899;DHT22;54699;51.796;10.956;2023-07-30T08:36:57;23.70;52.20
67899;DHT22;54699;51.796;10.956;2023-07-30T08:39:24;23.70;51.80
67899;DHT22;54699;51.796;10.956;2023-07-30T08:41:51;23.70;51.40
67899;DHT22;54699;51.796;10.956;2023-07-30T08:44:18;23.70;51.30
67899;DHT22;54699;51.796;10.956;2023-07-30T08:46:46;23.70;51.30
67899;DHT22;54699;51.796;10.956;2023-07-30T08:49:13;23.70;51.20
67899;DHT22;54699;51.796;10.956;2023-07-30T08:51:40;23.70;51.30
67899;DHT22;54699;51.796;10.956;2023-07-30T08:54:09;23.70;51.20
67899;DHT22;54699;51.796;10.956;2023-07-30T08:56:38;23.70;51.20
67899;DHT22;54699;51.796;10.956;2023-07-30T08:59:05;23.70;51.30
67899;DHT22;54699;51.796;10.956;2023-07-30T09:01:34;23.70;51.00
67899;DHT22;54699;51.796;10.956;2023-07-30T09:04:06;23.80;51.10
67899;DHT22;54699;51.796;10.956;2023-07-30T09:06:34;23.80;51.00
67899;DHT22;54699;51.796;10.956;2023-07-30T09:09:01;23.80;50.80
67899;DHT22;54699;51.796;10.956;2023-07-30T09:11:29;23.80;50.90
67899;DHT22;54699;51.796;10.956;2023-07-30T09:13:56;23.80;50.90
67899;DHT22;54699;51.796;10.956;2023-07-30T09:16:24;23.80;50.60
67899;DHT22;54699;51.796;10.956;2023-07-30T09:18:52;23.80;50.70
67899;DHT22;54699;51.796;10.956;2023-07-30T09:21:22;23.80;50.50
67899;DHT22;54699;51.796;10.956;2023-07-30T09:23:56;23.80;50.40
67899;DHT22;54699;51.796;10.956;2023-07-30T09:26:23;23.80;50.30
67899;DHT22;54699;51.796;10.956;2023-07-30T09:28:50;23.80;50.40
67899;DHT22;54699;51.796;10.956;2023-07-30T09:31:17;23.80;50.30
67899;DHT22;54699;51.796;10.956;2023-07-30T09:33:43;23.80;50.40
67899;DHT22;54699;51.796;10.956;2023-07-30T09:36:10;23.80;50.30
67899;DHT22;54699;51.796;10.956;2023-07-30T09:38:39;23.80;50.40
67899;DHT22;54699;51.796;10.956;2023-07-30T09:41:08;23.80;50.50
67899;DHT22;54699;51.796;10.956;2023-07-30T09:43:36;23.90;50.60
67899;DHT22;54699;51.796;10.956;2023-07-30T09:46:03;23.80;50.70
67899;DHT22;54699;51.796;10.956;2023-07-30T09:48:32;23.80;50.80
67899;DHT22;54699;51.796;10.956;2023-07-30T09:51:01;23.80;50.80
67899;DHT22;54699;51.796;10.956;2023-07-30T09:53:29;23.90;50.80
67899;DHT22;54699;51.796;10.956;2023-07-30T09:56:01;23.90;50.90
67899;DHT22;54699;51.796;10.956;2023-07-30T09:58:28;23.80;50.80
67899;DHT22;54699;51.796;10.956;2023-07-30T10:00:56;23.80;50.80
67899;DHT22;54699;51.796;10.956;2023-07-30T10:03:25;23.90;51.00
67899;DHT22;54699;51.796;10.956;2023-07-30T10:05:53;23.80;51.00
67899;DHT22;54699;51.796;10.956;2023-07-30T10:08:24;23.80;51.00
67899;DHT22;54699;51.796;10.956;2023-07-30T10:10:53;23.80;51.00
67899;DHT22;54699;51.796;10.956;2023-07-30T10:13:23;23.80;50.90
67899;DHT22;54699;51.796;10.956;2023-07-30T10:15:49;23.80;50.90
67899;DHT22;54699;51.796;10.956;2023-07-30T10:18:17;23.80;50.90
67899;DHT22;54699;51.796;10.956;2023-07-30T10:20:52;23.80;51.00
67899;DHT22;54699;51.796;10.956;2023-07-30T10:23:22;23.80;51.00
67899;DHT22;54699;51.796;10.956;2023-07-30T10:25:53;23.80;51.10
67899;DHT22;54699;51.796;10.956;2023-07-30T10:28:33;23.80;51.00
67899;DHT22;54699;51.796;10.956;2023-07-30T10:31:02;23.80;51.20
67899;DHT22;54699;51.796;10.956;2023-07-30T10:33:46;23.80;51.30
67899;DHT22;54699;51.796;10.956;2023-07-30T10:36:16;23.80;51.30
67899;DHT22;54699;51.796;10.956;2023-07-30T10:38:44;23.80;51.40
67899;DHT22;54699;51.796;10.956;2023-07-30T10:41:13;23.80;51.50
67899;DHT22;54699;51.796;10.956;2023-07-30T10:43:45;23.80;51.60
67899;DHT22;54699;51.796;10.956;2023-07-30T10:46:13;23.90;51.60
67899;DHT22;54699;51.796;10.956;2023-07-30T10:48:43;23.90;51.70
67899;DHT22;54699;51.796;10.956;2023-07-30T10:51:11;23.80;51.60
67899;DHT22;54699;51.796;10.956;2023-07-30T10:53:41;23.80;51.70
67899;DHT22;54699;51.796;10.956;2023-07-30T10:56:09;23.80;51.80
67899;DHT22;54699;51.796;10.956;2023-07-30T10:58:36;23.80;51.70
67899;DHT22;54699;51.796;10.956;2023-07-30T11:01:05;23.90;51.90
67899;DHT22;54699;51.796;10.956;2023-07-30T11:03:33;23.80;51.90
67899;DHT22;54699;51.796;10.956;2023-07-30T11:06:01;23.80;51.90
67899;DHT22;54699;51.796;10.956;2023-07-30T11:08:32;23.80;51.90
67899;DHT22;54699;51.796;10.956;2023-07-30T11:11:00;23.80;52.00
67899;DHT22;54699;51.796;10.956;2023-07-30T11:13:27;23.80;52.10
67899;DHT22;54699;51.796;10.956;2023-07-30T11:15:54;23.80;52.10
67899;DHT22;54699;51.796;10.956;2023-07-30T11:18:22;23.90;52.30
67899;DHT22;54699;51.796;10.956;2023-07-30T11:20:49;23.80;52.30
67899;DHT22;54699;51.796;10.956;2023-07-30T11:23:17;23.80;52.40
67899;DHT22;54699;51.796;10.956;2023-07-30T11:25:45;23.80;52.30
67899;DHT22;54699;51.796;10.956;2023-07-30T11:28:13;23.90;52.50
67899;DHT22;54699;51.796;10.956;2023-07-30T11:30:41;23.80;52.40
67899;DHT22;54699;51.796;10.956;2023-07-30T11:33:08;23.80;52.50
67899;DHT22;54699;51.796;10.956;2023-07-30T11:35:43;23.80;52.60
67899;DHT22;54699;51.796;10.956;2023-07-30T11:38:10;23.80;52.60
67899;DHT22;54699;51.796;10.956;2023-07-30T11:40:38;23.90;52.60
67899;DHT22;54699;51.796;10.956;2023-07-30T11:43:05;23.80;52.50
67899;DHT22;54699;51.796;10.956;2023-07-30T11:45:32;23.90;52.70
67899;DHT22;54699;51.796;10.956;2023-07-30T11:48:05;23.80;52.60
67899;DHT22;54699;51.796;10.956;2023-07-30T11:50:43;23.80;52.80
67899;DHT22;54699;51.796;10.956;2023-07-30T11:53:11;23.90;52.90
67899;DHT22;54699;51.796;10.956;2023-07-30T11:55:38;23.90;53.10
67899;DHT22;54699;51.796;10.956;2023-07-30T11:58:05;23.90;53.20
67899;DHT22;54699;51.796;10.956;2023-07-30T12:00:32;23.90;53.20
67899;DHT22;54699;51.796;10.956;2023-07-30T12:03:01;23.90;53.30
67899;DHT22;54699;51.796;10.956;2023-07-30T12:05:32;23.90;53.50
67899;DHT22;54699;51.796;10.956;2023-07-30T12:08:01;23.90;53.50
67899;DHT22;54699;51.796;10.956;2023-07-30T12:10:40;23.80;53.40
67899;DHT22;54699;51.796;10.956;2023-07-30T12:13:11;23.90;53.60
67899;DHT22;54699;51.796;10.956;2023-07-30T12:15:39;23.90;53.80
67899;DHT22;54699;51.796;10.956;2023-07-30T12:18:08;23.90;53.80
67899;DHT22;54699;51.796;10.956;2023-07-30T12:20:35;23.90;54.00
67899;DHT22;54699;51.796;10.956;2023-07-30T12:23:03;23.90;54.10
67899;DHT22;54699;51.796;10.956;2023-07-30T12:25:30;23.90;54.20
67899;DHT22;54699;51.796;10.956;2023-07-30T12:27:57;23.90;54.20
67899;DHT22;54699;51.796;10.956;2023-07-30T12:30:24;23.90;54.30
67899;DHT22;54699;51.796;10.956;2023-07-30T12:32:51;23.90;54.30
67899;DHT22;54699;51.796;10.956;2023-07-30T12:35:18;23.90;54.40
67899;DHT22;54699;51.796;10.956;2023-07-30T12:37:45;23.90;54.40
67899;DHT22;54699;51.796;10.956;2023-07-30T12:40:13;23.90;54.50
67899;DHT22;54699;51.796;10.956;2023-07-30T12:42:40;23.90;54.60
67899;DHT22;54699;51.796;10.956;2023-07-30T12:45:07;23.90;54.70
67899;DHT22;54699;51.796;10.956;2023-07-30T12:47:36;23.90;54.60
67899;DHT22;54699;51.796;10.956;2023-07-30T12:50:03;23.90;54.60
67899;DHT22;54699;51.796;10.956;2023-07-30T12:52:31;23.90;54.60
67899;DHT22;54699;51.796;10.956;2023-07-30T12:54:58;23.90;54.60
67899;DHT22;54699;51.796;10.956;2023-07-30T12:57:27;23.90;54.60
67899;DHT22;54699;51.796;10.956;2023-07-30T12:59:54;23.90;54.30
67899;DHT22;54699;51.796;10.956;2023-07-30T13:02:21;23.90;54.40
67899;DHT22;54699;51.796;10.956;2023-07-30T13:04:48;23.90;54.30
67899;DHT22;54699;51.796;10.956;2023-07-30T13:07:15;23.90;54.30
67899;DHT22;54699;51.796;10.956;2023-07-30T13:09:42;23.90;54.10
67899;DHT22;54699;51.796;10.956;2023-07-30T13:12:08;23.90;54.00
67899;DHT22;54699;51.796;10.956;2023-07-30T13:14:37;23.90;54.00
67899;DHT22;54699;51.796;10.956;2023-07-30T13:17:03;23.90;53.90
67899;DHT22;54699;51.796;10.956;2023-07-30T13:19:30;23.90;53.70
67899;DHT22;54699;51.796;10.956;2023-07-30T13:21:58;23.90;53.60
67899;DHT22;54699;51.796;10.956;2023-07-30T13:24:25;23.90;53.50
67899;DHT22;54699;51.796;10.956;2023-07-30T13:26:54;23.90;53.40
67899;DHT22;54699;51.796;10.956;2023-07-30T13:29:21;23.90;53.30
67899;DHT22;54699;51.796;10.956;2023-07-30T13:31:50;23.90;53.10
67899;DHT22;54699;51.796;10.956;2023-07-30T13:34:16;23.90;53.00
67899;DHT22;54699;51.796;10.956;2023-07-30T13:36:43;23.90;53.00
67899;DHT22;54699;51.796;10.956;2023-07-30T13:39:10;23.90;53.00
67899;DHT22;54699;51.796;10.956;2023-07-30T13:41:37;23.90;53.00
67899;DHT22;54699;51.796;10.956;2023-07-30T13:44:04;23.90;53.10
67899;DHT22;54699;51.796;10.956;2023-07-30T13:46:31;23.90;53.10
67899;DHT22;54699;51.796;10.956;2023-07-30T13:48:59;23.90;53.20
67899;DHT22;54699;51.796;10.956;2023-07-30T13:51:26;24.00;53.60
67899;DHT22;54699;51.796;10.956;2023-07-30T13:53:57;24.00;54.00
67899;DHT22;54699;51.796;10.956;2023-07-30T13:56:24;24.00;53.70
67899;DHT22;54699;51.796;10.956;2023-07-30T13:58:51;23.90;53.90
67899;DHT22;54699;51.796;10.956;2023-07-30T14:01:18;24.00;54.00
67899;DHT22;54699;51.796;10.956;2023-07-30T14:03:45;24.00;53.60
67899;DHT22;54699;51.796;10.956;2023-07-30T14:06:13;24.00;53.90
67899;DHT22;54699;51.796;10.956;2023-07-30T14:08:40;23.90;53.60
67899;DHT22;54699;51.796;10.956;2023-07-30T14:11:07;24.00;54.30
67899;DHT22;54699;51.796;10.956;2023-07-30T14:13:34;24.00;55.80
67899;DHT22;54699;51.796;10.956;2023-07-30T14:16:00;24.00;56.50
67899;DHT22;54699;51.796;10.956;2023-07-30T14:18:27;24.00;56.10
67899;DHT22;54699;51.796;10.956;2023-07-30T14:20:54;24.10;56.30
67899;DHT22;54699;51.796;10.956;2023-07-30T14:23:22;24.10;56.70
67899;DHT22;54699;51.796;10.956;2023-07-30T14:25:49;24.10;56.70
67899;DHT22;54699;51.796;10.956;2023-07-30T14:28:16;24.10;57.00
67899;DHT22;54699;51.796;10.956;2023-07-30T14:30:43;24.10;57.40
67899;DHT22;54699;51.796;10.956;2023-07-30T14:33:10;24.10;57.90
67899;DHT22;54699;51.796;10.956;2023-07-30T14:35:40;24.10;57.30
67899;DHT22;54699;51.796;10.956;2023-07-30T14:38:07;24.10;57.50
67899;DHT22;54699;51.796;10.956;2023-07-30T14:40:36;24.20;57.60
67899;DHT22;54699;51.796;10.956;2023-07-30T14:43:03;24.20;57.60
67899;DHT22;54699;51.796;10.956;2023-07-30T14:45:30;24.20;58.00
67899;DHT22;54699;51.796;10.956;2023-07-30T14:47:57;24.30;58.50
67899;DHT22;54699;51.796;10.956;2023-07-30T14:50:24;24.30;58.60
67899;DHT22;54699;51.796;10.956;2023-07-30T14:52:51;24.30;59.10
67899;DHT22;54699;51.796;10.956;2023-07-30T14:55:18;24.30;59.00
67899;DHT22;54699;51.796;10.956;2023-07-30T14:57:47;24.30;58.70
67899;DHT22;54699;51.796;10.956;2023-07-30T15:00:14;24.40;59.20
67899;DHT22;54699;51.796;10.956;2023-07-30T15:02:42;24.40;58.80
67899;DHT22;54699;51.796;10.956;2023-07-30T15:05:09;24.40;58.60
67899;DHT22;54699;51.796;10.956;2023-07-30T15:07:36;24.40;58.60
67899;DHT22;54699;51.796;10.956;2023-07-30T15:10:03;24.40;58.30
67899;DHT22;54699;51.796;10.956;2023-07-30T15:12:30;24.50;58.30
67899;DHT22;54699;51.796;10.956;2023-07-30T15:14:59;24.40;58.20
67899;DHT22;54699;51.796;10.956;2023-07-30T15:17:26;24.50;58.20